sensor_id;sensor_type;location;lat;lon;timestamp;pressure;altitude;pressure_sealevel;temperature;humidity
40650;BME280;26342;42.826;23.992;2023-03-03T00:01:05;95471.38;;;3.63;100.00
40650;BME280;26342;42.826;23.992;2023-03-03T00:03:30;95471.38;;;3.63;100.00
40650;BME280;26342;42.826;23.992;2023-03-03T00:05:56;95468.94;;;3.61;100.00
40650;BME280;26342;42.826;23.992;2023-03-03T00:08:22;95466.16;;;3.50;100.00
40650;BME280;26342;42.826;23.992;2023-03-03T00:10:48;95463.53;;;3.50;100.00
40650;BME280;26342;42.826;23.992;2023-03-03T00:13:16;95462.31;;;3.46;100.00
40650;BME280;26342;42.826;23.992;2023-03-03T00:15:42;95457.00;;;3.52;100.00
40650;BME280;26342;42.826;23.992;2023-03-03T00:18:24;95448.72;;;3.49;100.00
40650;BME280;26342;42.826;23.992;2023-03-03T00:20:55;95442.25;;;3.45;100.00
40650;BME280;26342;42.826;23.992;2023-03-03T00:23:23;95447.31;;;3.40;100.00
40650;BME280;26342;42.826;23.992;2023-03-03T00:25:52;95450.84;;;3.27;100.00
40650;BME280;26342;42.826;23.992;2023-03-03T00:28:30;95455.91;;;3.28;100.00
40650;BME280;26342;42.826;23.992;2023-03-03T00:30:58;95456.13;;;3.20;100.00
40650;BME280;26342;42.826;23.992;2023-03-03T00:35:53;95437.09;;;3.18;100.00
40650;BME280;26342;42.826;23.992;2023-03-03T00:38:19;95444.34;;;3.23;100.00
40650;BME280;26342;42.826;23.992;2023-03-03T00:40:45;95441.72;;;3.23;100.00
40650;BME280;26342;42.826;23.992;2023-03-03T00:45:52;95427.50;;;3.24;100.00
40650;BME280;26342;42.826;23.992;2023-03-03T00:53:48;95432.03;;;3.10;100.00
40650;BME280;26342;42.826;23.992;2023-03-03T00:56:14;95425.53;;;3.13;100.00
40650;BME280;26342;42.826;23.992;2023-03-03T00:58:39;95422.53;;;3.09;100.00
40650;BME280;26342;42.826;23.992;2023-03-03T01:01:05;95426.78;;;3.10;100.00
40650;BME280;26342;42.826;23.992;2023-03-03T01:03:30;95423.72;;;3.13;100.00
40650;BME280;26342;42.826;23.992;2023-03-03T01:05:56;95414.38;;;3.17;100.00
40650;BME280;26342;42.826;23.992;2023-03-03T01:08:22;95413.97;;;3.14;100.00
40650;BME280;26342;42.826;23.992;2023-03-03T01:13:20;95414.22;;;3.05;100.00
40650;BME280;26342;42.826;23.992;2023-03-03T01:15:47;95401.22;;;3.11;100.00
40650;BME280;26342;42.826;23.992;2023-03-03T01:18:13;95405.91;;;3.08;100.00
40650;BME280;26342;42.826;23.992;2023-03-03T01:20:39;95408.56;;;3.02;100.00
40650;BME280;26342;42.826;23.992;2023-03-03T01:23:05;95411.81;;;2.97;100.00
40650;BME280;26342;42.826;23.992;2023-03-03T01:25:31;95399.84;;;2.95;100.00
40650;BME280;26342;42.826;23.992;2023-03-03T01:27:56;95403.50;;;2.94;100.00
40650;BME280;26342;42.826;23.992;2023-03-03T01:30:22;95406.13;;;3.00;100.00
40650;BME280;26342;42.826;23.992;2023-03-03T01:32:48;95379.16;;;2.92;100.00
40650;BME280;26342;42.826;23.992;2023-03-03T01:35:14;95400.22;;;2.98;100.00
40650;BME280;26342;42.826;23.992;2023-03-03T01:37:39;95393.16;;;2.92;100.00
40650;BME280;26342;42.826;23.992;2023-03-03T01:40:07;95402.25;;;3.03;100.00
40650;BME280;26342;42.826;23.992;2023-03-03T01:42:36;95391.50;;;3.04;100.00
40650;BME280;26342;42.826;23.992;2023-03-03T01:45:17;95397.00;;;3.03;100.00
40650;BME280;26342;42.826;23.992;2023-03-03T01:47:55;95398.00;;;3.08;100.00
40650;BME280;26342;42.826;23.992;2023-03-03T01:50:35;95391.69;;;3.10;100.00
40650;BME280;26342;42.826;23.992;2023-03-03T01:53:04;95382.19;;;3.02;100.00
40650;BME280;26342;42.826;23.992;2023-03-03T01:55:35;95391.69;;;3.10;100.00
40650;BME280;26342;42.826;23.992;2023-03-03T01:58:13;95378.53;;;3.03;100.00
40650;BME280;26342;42.826;23.992;2023-03-03T02:00:41;95386.41;;;3.16;100.00
40650;BME280;26342;42.826;23.992;2023-03-03T02:03:08;95381.31;;;3.15;100.00
40650;BME280;26342;42.826;23.992;2023-03-03T02:05:35;95383.91;;;3.21;100.00
40650;BME280;26342;42.826;23.992;2023-03-03T02:08:01;95394.31;;;3.16;100.00
40650;BME280;26342;42.826;23.992;2023-03-03T02:10:27;95393.69;;;3.14;100.00
40650;BME280;26342;42.826;23.992;2023-03-03T02:12:57;95395.50;;;3.14;100.00
40650;BME280;26342;42.826;23.992;2023-03-03T02:15:33;95356.63;;;3.02;100.00
40650;BME280;26342;42.826;23.992;2023-03-03T02:18:07;95390.22;;;3.20;100.00
40650;BME280;26342;42.826;23.992;2023-03-03T02:21:03;95391.84;;;3.21;100.00
40650;BME280;26342;42.826;23.992;2023-03-03T02:26:17;95389.63;;;3.18;100.00
40650;BME280;26342;42.826;23.992;2023-03-03T02:28:46;95383.94;;;3.15;100.00
40650;BME280;26342;42.826;23.992;2023-03-03T02:31:15;95385.41;;;3.11;100.00
40650;BME280;26342;42.826;23.992;2023-03-03T02:33:43;95378.28;;;3.11;100.00
40650;BME280;26342;42.826;23.992;2023-03-03T02:36:22;95384.97;;;3.14;100.00
40650;BME280;26342;42.826;23.992;2023-03-03T02:38:58;95382.75;;;3.11;100.00
40650;BME280;26342;42.826;23.992;2023-03-03T02:44:07;95376.22;;;3.20;100.00
40650;BME280;26342;42.826;23.992;2023-03-03T02:46:36;95382.31;;;3.20;100.00
40650;BME280;26342;42.826;23.992;2023-03-03T02:49:03;95380.94;;;3.11;100.00
40650;BME280;26342;42.826;23.992;2023-03-03T02:51:29;95373.41;;;3.08;100.00
40650;BME280;26342;42.826;23.992;2023-03-03T02:53:55;95381.13;;;3.16;100.00
40650;BME280;26342;42.826;23.992;2023-03-03T02:56:21;95371.38;;;3.17;100.00
40650;BME280;26342;42.826;23.992;2023-03-03T02:58:46;95375.00;;;3.16;100.00
40650;BME280;26342;42.826;23.992;2023-03-03T03:01:12;95376.06;;;3.08;100.00
40650;BME280;26342;42.826;23.992;2023-03-03T03:03:37;95377.88;;;3.07;100.00
40650;BME280;26342;42.826;23.992;2023-03-03T03:06:03;95373.41;;;3.08;100.00
40650;BME280;26342;42.826;23.992;2023-03-03T03:08:28;95373.41;;;3.08;100.00
40650;BME280;26342;42.826;23.992;2023-03-03T03:10:54;95369.56;;;3.11;100.00
40650;BME280;26342;42.826;23.992;2023-03-03T03:13:21;95376.66;;;3.17;100.00
40650;BME280;26342;42.826;23.992;2023-03-03T03:15:46;95376.44;;;3.18;100.00
40650;BME280;26342;42.826;23.992;2023-03-03T03:18:13;95369.94;;;3.21;100.00
40650;BME280;26342;42.826;23.992;2023-03-03T03:20:38;95370.16;;;3.19;100.00
40650;BME280;26342;42.826;23.992;2023-03-03T03:23:06;95369.78;;;3.09;100.00
40650;BME280;26342;42.826;23.992;2023-03-03T03:25:31;95363.53;;;3.03;100.00
40650;BME280;26342;42.826;23.992;2023-03-03T03:27:56;95361.47;;;3.05;100.00
40650;BME280;26342;42.826;23.992;2023-03-03T03:30:22;95358.00;;;3.12;100.00
40650;BME280;26342;42.826;23.992;2023-03-03T03:32:47;95361.66;;;3.11;100.00
40650;BME280;26342;42.826;23.992;2023-03-03T03:35:12;95361.22;;;3.20;100.00
40650;BME280;26342;42.826;23.992;2023-03-03T03:37:38;95358.56;;;3.20;100.00
40650;BME280;26342;42.826;23.992;2023-03-03T03:40:04;95356.78;;;3.14;100.00
40650;BME280;26342;42.826;23.992;2023-03-03T03:42:30;95352.94;;;3.17;100.00
40650;BME280;26342;42.826;23.992;2023-03-03T03:44:55;95355.16;;;3.13;100.00
40650;BME280;26342;42.826;23.992;2023-03-03T03:47:21;95351.69;;;3.19;100.00
40650;BME280;26342;42.826;23.992;2023-03-03T03:49:46;95334.06;;;3.13;100.00
40650;BME280;26342;42.826;23.992;2023-03-03T03:52:11;95345.56;;;3.25;100.00
40650;BME280;26342;42.826;23.992;2023-03-03T03:54:37;95340.91;;;3.21;100.00
40650;BME280;26342;42.826;23.992;2023-03-03T03:57:03;95337.09;;;3.17;100.00
40650;BME280;26342;42.826;23.992;2023-03-03T03:59:28;95340.31;;;3.19;100.00
40650;BME280;26342;42.826;23.992;2023-03-03T04:01:54;95331.84;;;3.17;100.00
40650;BME280;26342;42.826;23.992;2023-03-03T04:04:19;95333.81;;;3.21;100.00
40650;BME280;26342;42.826;23.992;2023-03-03T04:06:44;95333.44;;;3.18;100.00
40650;BME280;26342;42.826;23.992;2023-03-03T04:09:10;95328.13;;;3.24;100.00
40650;BME280;26342;42.826;23.992;2023-03-03T04:11:35;95333.41;;;3.24;100.00
40650;BME280;26342;42.826;23.992;2023-03-03T04:14:01;95327.69;;;3.27;100.00
40650;BME280;26342;42.826;23.992;2023-03-03T04:16:26;95323.00;;;3.29;100.00
40650;BME280;26342;42.826;23.992;2023-03-03T04:18:51;95326.69;;;3.28;100.00
40650;BME280;26342;42.826;23.992;2023-03-03T04:21:17;95331.63;;;3.18;100.00
40650;BME280;26342;42.826;23.992;2023-03-03T04:23:42;95325.13;;;3.14;100.00
40650;BME280;26342;42.826;23.992;2023-03-03T04:26:08;95330.81;;;3.18;100.00
40650;BME280;26342;42.826;23.992;2023-03-03T04:28:34;95324.72;;;3.17;100.00
40650;BME280;26342;42.826;23.992;2023-03-03T04:31:00;95323.13;;;3.16;100.00
40650;BME280;26342;42.826;23.992;2023-03-03T04:33:25;95331.97;;;3.22;100.00
40650;BME280;26342;42.826;23.992;2023-03-03T04:35:51;95323.47;;;3.20;100.00
40650;BME280;26342;42.826;23.992;2023-03-03T04:38:16;95324.72;;;3.17;100.00
40650;BME280;26342;42.826;23.992;2023-03-03T04:40:42;95327.13;;;3.25;100.00
40650;BME280;26342;42.826;23.992;2023-03-03T04:43:08;95322.78;;;3.31;100.00
40650;BME280;26342;42.826;23.992;2023-03-03T04:45:34;95319.16;;;3.32;100.00
40650;BME280;26342;42.826;23.992;2023-03-03T04:47:59;95311.72;;;3.16;100.00
40650;BME280;26342;42.826;23.992;2023-03-03T04:50:25;95327.94;;;3.19;100.00
40650;BME280;26342;42.826;23.992;2023-03-03T04:52:50;95319.06;;;3.14;100.00
40650;BME280;26342;42.826;23.992;2023-03-03T04:55:16;95321.84;;;3.25;100.00
40650;BME280;26342;42.826;23.992;2023-03-03T04:57:42;95318.81;;;3.22;100.00
40650;BME280;26342;42.826;23.992;2023-03-03T05:00:09;95325.94;;;3.15;100.00
40650;BME280;26342;42.826;23.992;2023-03-03T05:02:37;95320.66;;;3.15;100.00
40650;BME280;26342;42.826;23.992;2023-03-03T05:05:03;95319.47;;;3.11;100.00
40650;BME280;26342;42.826;23.992;2023-03-03T05:07:29;95327.75;;;3.14;100.00
40650;BME280;26342;42.826;23.992;2023-03-03T05:09:54;95311.13;;;3.14;100.00
40650;BME280;26342;42.826;23.992;2023-03-03T05:12:19;95324.47;;;3.25;100.00
40650;BME280;26342;42.826;23.992;2023-03-03T05:14:45;95328.06;;;3.31;100.00
40650;BME280;26342;42.826;23.992;2023-03-03T05:17:10;95329.72;;;3.32;100.00
40650;BME280;26342;42.826;23.992;2023-03-03T05:19:36;95327.06;;;3.32;100.00
40650;BME280;26342;42.826;23.992;2023-03-03T05:22:01;95330.31;;;3.34;100.00
40650;BME280;26342;42.826;23.992;2023-03-03T05:24:26;95327.22;;;3.37;100.00
40650;BME280;26342;42.826;23.992;2023-03-03T05:26:52;95338.59;;;3.38;100.00
40650;BME280;26342;42.826;23.992;2023-03-03T05:29:18;95329.06;;;3.36;100.00
40650;BME280;26342;42.826;23.992;2023-03-03T05:31:43;95327.72;;;3.21;100.00
40650;BME280;26342;42.826;23.992;2023-03-03T05:34:08;95319.63;;;3.16;100.00
40650;BME280;26342;42.826;23.992;2023-03-03T05:36:34;95326.75;;;3.15;100.00
40650;BME280;26342;42.826;23.992;2023-03-03T05:38:59;95318.44;;;3.18;100.00
40650;BME280;26342;42.826;23.992;2023-03-03T05:41:25;95339.94;;;3.15;100.00
40650;BME280;26342;42.826;23.992;2023-03-03T05:43:50;95326.56;;;3.17;100.00
40650;BME280;26342;42.826;23.992;2023-03-03T05:46:16;95338.09;;;3.16;100.00
40650;BME280;26342;42.826;23.992;2023-03-03T05:48:41;95330.16;;;3.22;100.00
40650;BME280;26342;42.826;23.992;2023-03-03T05:51:07;95341.31;;;3.24;100.00
40650;BME280;26342;42.826;23.992;2023-03-03T05:53:32;95330.78;;;3.24;100.00
40650;BME280;26342;42.826;23.992;2023-03-03T05:55:58;95341.25;;;3.31;100.00
40650;BME280;26342;42.826;23.992;2023-03-03T05:58:23;95339.91;;;3.22;100.00
40650;BME280;26342;42.826;23.992;2023-03-03T06:00:48;95336.22;;;3.23;100.00
40650;BME280;26342;42.826;23.992;2023-03-03T06:03:14;95342.38;;;3.17;100.00
40650;BME280;26342;42.826;23.992;2023-03-03T06:05:40;95345.38;;;3.20;100.00
40650;BME280;26342;42.826;23.992;2023-03-03T06:08:06;95341.50;;;3.23;100.00
40650;BME280;26342;42.826;23.992;2023-03-03T06:10:31;95341.78;;;3.08;100.00
40650;BME280;26342;42.826;23.992;2023-03-03T06:12:57;95341.75;;;3.15;100.00
40650;BME280;26342;42.826;23.992;2023-03-03T06:15:23;95340.69;;;3.22;100.00
40650;BME280;26342;42.826;23.992;2023-03-03T06:17:48;95337.91;;;3.17;100.00
40650;BME280;26342;42.826;23.992;2023-03-03T06:20:14;95347.03;;;3.15;100.00
40650;BME280;26342;42.826;23.992;2023-03-03T06:22:39;95341.94;;;3.20;100.00
40650;BME280;26342;42.826;23.992;2023-03-03T06:25:05;95337.84;;;3.24;100.00
40650;BME280;26342;42.826;23.992;2023-03-03T06:27:30;95346.59;;;3.24;100.00
40650;BME280;26342;42.826;23.992;2023-03-03T06:29:56;95338.47;;;3.26;100.00
40650;BME280;26342;42.826;23.992;2023-03-03T06:32:21;95346.34;;;3.32;100.00
40650;BME280;26342;42.826;23.992;2023-03-03T06:34:46;95318.91;;;3.08;100.00
40650;BME280;26342;42.826;23.992;2023-03-03T06:37:12;95342.28;;;3.30;100.00
40650;BME280;26342;42.826;23.992;2023-03-03T06:39:37;95337.81;;;3.30;100.00
40650;BME280;26342;42.826;23.992;2023-03-03T06:42:03;95343.06;;;3.37;100.00
40650;BME280;26342;42.826;23.992;2023-03-03T06:44:28;95341.06;;;3.32;100.00
40650;BME280;26342;42.826;23.992;2023-03-03T06:46:54;95336.97;;;3.36;100.00
40650;BME280;26342;42.826;23.992;2023-03-03T06:49:21;95340.38;;;3.44;100.00
40650;BME280;26342;42.826;23.992;2023-03-03T06:51:47;95352.50;;;3.51;100.00
40650;BME280;26342;42.826;23.992;2023-03-03T06:54:17;95348.66;;;3.47;100.00
40650;BME280;26342;42.826;23.992;2023-03-03T06:56:44;95334.13;;;3.38;100.00
40650;BME280;26342;42.826;23.992;2023-03-03T06:59:15;95352.28;;;3.53;100.00
40650;BME280;26342;42.826;23.992;2023-03-03T07:01:41;95346.94;;;3.66;100.00
40650;BME280;26342;42.826;23.992;2023-03-03T07:04:27;95336.63;;;3.58;100.00
40650;BME280;26342;42.826;23.992;2023-03-03T07:06:54;95347.91;;;3.72;100.00
40650;BME280;26342;42.826;23.992;2023-03-03T07:09:21;95351.09;;;3.80;100.00
40650;BME280;26342;42.826;23.992;2023-03-03T07:11:48;95340.84;;;3.90;100.00
40650;BME280;26342;42.826;23.992;2023-03-03T07:14:17;95341.38;;;3.99;100.00
40650;BME280;26342;42.826;23.992;2023-03-03T07:16:43;95348.81;;;4.09;100.00
40650;BME280;26342;42.826;23.992;2023-03-03T07:19:29;95332.38;;;4.07;100.00
40650;BME280;26342;42.826;23.992;2023-03-03T07:21:56;95324.25;;;4.08;100.00
40650;BME280;26342;42.826;23.992;2023-03-03T07:24:28;95342.22;;;4.18;100.00
40650;BME280;26342;42.826;23.992;2023-03-03T07:26:59;95345.25;;;4.22;100.00
40650;BME280;26342;42.826;23.992;2023-03-03T07:29:32;95345.63;;;4.25;100.00
40650;BME280;26342;42.826;23.992;2023-03-03T07:32:00;95340.78;;;4.22;100.00
40650;BME280;26342;42.826;23.992;2023-03-03T07:34:37;95335.06;;;4.25;100.00
40650;BME280;26342;42.826;23.992;2023-03-03T07:39:44;95319.00;;;4.27;100.00
40650;BME280;26342;42.826;23.992;2023-03-03T07:42:26;95325.41;;;4.37;100.00
40650;BME280;26342;42.826;23.992;2023-03-03T07:44:58;95330.50;;;4.32;100.00
40650;BME280;26342;42.826;23.992;2023-03-03T07:47:26;95319.25;;;4.43;100.00
40650;BME280;26342;42.826;23.992;2023-03-03T07:49:56;95320.13;;;4.56;100.00
40650;BME280;26342;42.826;23.992;2023-03-03T07:52:25;95327.31;;;4.67;100.00
40650;BME280;26342;42.826;23.992;2023-03-03T07:54:53;95326.88;;;4.70;100.00
40650;BME280;26342;42.826;23.992;2023-03-03T07:57:28;95327.03;;;4.75;100.00
40650;BME280;26342;42.826;23.992;2023-03-03T08:02:52;95318.38;;;4.68;100.00
40650;BME280;26342;42.826;23.992;2023-03-03T08:05:35;95320.78;;;4.69;100.00
40650;BME280;26342;42.826;23.992;2023-03-03T08:10:52;95313.59;;;4.76;100.00
40650;BME280;26342;42.826;23.992;2023-03-03T08:18:36;95307.03;;;4.79;100.00
40650;BME280;26342;42.826;23.992;2023-03-03T08:21:12;95306.16;;;4.85;100.00
40650;BME280;26342;42.826;23.992;2023-03-03T08:23:37;95305.94;;;4.87;100.00
40650;BME280;26342;42.826;23.992;2023-03-03T08:26:03;95303.13;;;4.82;100.00
40650;BME280;26342;42.826;23.992;2023-03-03T08:28:29;95301.81;;;4.72;100.00
40650;BME280;26342;42.826;23.992;2023-03-03T08:30:54;95296.53;;;4.72;100.00
40650;BME280;26342;42.826;23.992;2023-03-03T08:33:20;95291.31;;;4.84;100.00
40650;BME280;26342;42.826;23.992;2023-03-03T08:35:46;95298.69;;;4.82;100.00
40650;BME280;26342;42.826;23.992;2023-03-03T08:38:13;95303.97;;;4.82;100.00
40650;BME280;26342;42.826;23.992;2023-03-03T08:40:40;95289.47;;;4.85;100.00
40650;BME280;26342;42.826;23.992;2023-03-03T08:43:06;95293.16;;;4.84;100.00
40650;BME280;26342;42.826;23.992;2023-03-03T08:45:32;95303.56;;;4.97;100.00
40650;BME280;26342;42.826;23.992;2023-03-03T08:47:57;95295.31;;;5.05;100.00
40650;BME280;26342;42.826;23.992;2023-03-03T08:50:24;95287.38;;;5.05;100.00
40650;BME280;26342;42.826;23.992;2023-03-03T08:52:50;95294.06;;;5.08;100.00
40650;BME280;26342;42.826;23.992;2023-03-03T08:55:15;95287.38;;;5.05;100.00
40650;BME280;26342;42.826;23.992;2023-03-03T08:57:41;95287.97;;;5.07;100.00
40650;BME280;26342;42.826;23.992;2023-03-03T09:00:10;95288.31;;;5.11;100.00
40650;BME280;26342;42.826;23.992;2023-03-03T09:02:36;95286.63;;;5.16;100.00
40650;BME280;26342;42.826;23.992;2023-03-03T09:05:02;95281.34;;;5.16;100.00
40650;BME280;26342;42.826;23.992;2023-03-03T09:07:27;95285.72;;;5.22;100.00
40650;BME280;26342;42.826;23.992;2023-03-03T09:09:53;95276.03;;;5.16;100.00
40650;BME280;26342;42.826;23.992;2023-03-03T09:12:23;95294.28;;;5.36;100.00
40650;BME280;26342;42.826;23.992;2023-03-03T09:14:50;95295.31;;;5.35;100.00
40650;BME280;26342;42.826;23.992;2023-03-03T09:17:33;95291.19;;;5.39;100.00
40650;BME280;26342;42.826;23.992;2023-03-03T09:20:09;95284.16;;;5.45;100.00
40650;BME280;26342;42.826;23.992;2023-03-03T09:22:37;95291.56;;;5.54;100.00
40650;BME280;26342;42.826;23.992;2023-03-03T09:25:17;95281.00;;;5.66;100.00
40650;BME280;26342;42.826;23.992;2023-03-03T09:27:45;95285.03;;;5.69;100.00
40650;BME280;26342;42.826;23.992;2023-03-03T09:32:48;95277.91;;;5.81;100.00
40650;BME280;26342;42.826;23.992;2023-03-03T09:35:37;95278.84;;;5.86;100.00
40650;BME280;26342;42.826;23.992;2023-03-03T09:43:49;95276.31;;;6.15;100.00
40650;BME280;26342;42.826;23.992;2023-03-03T09:46:26;95279.00;;;6.27;100.00
40650;BME280;26342;42.826;23.992;2023-03-03T09:54:38;95274.59;;;6.44;100.00
40650;BME280;26342;42.826;23.992;2023-03-03T09:59:43;95265.22;;;6.65;100.00
40650;BME280;26342;42.826;23.992;2023-03-03T10:10:42;95265.44;;;7.04;100.00
40650;BME280;26342;42.826;23.992;2023-03-03T10:16:09;95264.34;;;7.16;100.00
40650;BME280;26342;42.826;23.992;2023-03-03T10:19:12;95257.69;;;7.31;100.00
40650;BME280;26342;42.826;23.992;2023-03-03T10:27:31;95260.25;;;7.25;100.00
40650;BME280;26342;42.826;23.992;2023-03-03T10:39:05;95242.03;;;7.46;100.00
40650;BME280;26342;42.826;23.992;2023-03-03T11:06:05;95215.41;;;8.30;100.00
40650;BME280;26342;42.826;23.992;2023-03-03T11:18:59;95204.75;;;8.47;100.00
40650;BME280;26342;42.826;23.992;2023-03-03T11:31:55;95203.25;;;8.17;100.00
40650;BME280;26342;42.826;23.992;2023-03-03T11:34:52;95196.78;;;8.08;100.00
40650;BME280;26342;42.826;23.992;2023-03-03T11:37:40;95190.47;;;8.14;100.00
40650;BME280;26342;42.826;23.992;2023-03-03T11:40:19;95198.75;;;8.18;100.00
40650;BME280;26342;42.826;23.992;2023-03-03T11:43:09;95184.28;;;8.08;100.00
40650;BME280;26342;42.826;23.992;2023-03-03T11:45:44;95183.53;;;8.13;100.00
40650;BME280;26342;42.826;23.992;2023-03-03T11:48:31;95187.63;;;8.21;100.00
40650;BME280;26342;42.826;23.992;2023-03-03T11:51:11;95181.66;;;8.13;100.00
40650;BME280;26342;42.826;23.992;2023-03-03T11:56:38;95168.97;;;8.16;100.00
40650;BME280;26342;42.826;23.992;2023-03-03T12:04:54;95175.75;;;8.06;100.00
40650;BME280;26342;42.826;23.992;2023-03-03T12:07:39;95163.06;;;8.13;100.00
40650;BME280;26342;42.826;23.992;2023-03-03T12:13:03;95176.00;;;8.27;100.00
40650;BME280;26342;42.826;23.992;2023-03-03T12:21:22;95174.16;;;8.27;100.00
40650;BME280;26342;42.826;23.992;2023-03-03T12:29:29;95173.09;;;8.28;100.00
40650;BME280;26342;42.826;23.992;2023-03-03T12:35:17;95165.19;;;8.11;100.00
40650;BME280;26342;42.826;23.992;2023-03-03T12:40:34;95182.59;;;8.02;100.00
40650;BME280;26342;42.826;23.992;2023-03-03T12:46:04;95182.53;;;7.80;100.00
40650;BME280;26342;42.826;23.992;2023-03-03T12:48:42;95183.28;;;7.76;100.00
40650;BME280;26342;42.826;23.992;2023-03-03T12:51:36;95185.84;;;7.88;100.00
40650;BME280;26342;42.826;23.992;2023-03-03T13:04:39;95186.66;;;7.71;100.00
40650;BME280;26342;42.826;23.992;2023-03-03T13:07:18;95178.16;;;7.52;100.00
40650;BME280;26342;42.826;23.992;2023-03-03T13:23:45;95173.72;;;7.24;100.00
40650;BME280;26342;42.826;23.992;2023-03-03T13:27:15;95171.41;;;7.11;100.00
40650;BME280;26342;42.826;23.992;2023-03-03T13:29:34;95171.94;;;6.96;100.00
40650;BME280;26342;42.826;23.992;2023-03-03T13:32:18;95172.97;;;6.95;100.00
40650;BME280;26342;42.826;23.992;2023-03-03T13:37:43;95169.31;;;6.85;100.00
40650;BME280;26342;42.826;23.992;2023-03-03T13:48:20;95165.44;;;7.04;100.00
40650;BME280;26342;42.826;23.992;2023-03-03T13:50:56;95167.50;;;7.02;100.00
40650;BME280;26342;42.826;23.992;2023-03-03T13:59:03;95155.53;;;6.99;100.00
40650;BME280;26342;42.826;23.992;2023-03-03T14:06:29;95161.97;;;7.04;100.00
40650;BME280;26342;42.826;23.992;2023-03-03T14:08:59;95167.75;;;7.00;100.00
40650;BME280;26342;42.826;23.992;2023-03-03T14:11:51;95159.38;;;7.09;100.00
40650;BME280;26342;42.826;23.992;2023-03-03T14:19:47;95162.91;;;6.97;100.00
40650;BME280;26342;42.826;23.992;2023-03-03T14:22:17;95160.59;;;7.01;100.00
40650;BME280;26342;42.826;23.992;2023-03-03T14:25:08;95163.72;;;6.98;100.00
40650;BME280;26342;42.826;23.992;2023-03-03T14:27:59;95152.88;;;6.99;100.00
40650;BME280;26342;42.826;23.992;2023-03-03T14:35:36;95156.72;;;7.09;100.00
40650;BME280;26342;42.826;23.992;2023-03-03T14:38:24;95156.09;;;7.02;100.00
40650;BME280;26342;42.826;23.992;2023-03-03T14:41:15;95162.69;;;6.99;100.00
40650;BME280;26342;42.826;23.992;2023-03-03T14:43:43;95165.88;;;6.84;100.00
40650;BME280;26342;42.826;23.992;2023-03-03T14:48:52;95151.69;;;6.79;100.00
40650;BME280;26342;42.826;23.992;2023-03-03T14:51:27;95159.50;;;6.85;100.00
40650;BME280;26342;42.826;23.992;2023-03-03T14:53:55;95164.34;;;6.88;100.00
40650;BME280;26342;42.826;23.992;2023-03-03T14:56:27;95166.66;;;6.85;100.00
40650;BME280;26342;42.826;23.992;2023-03-03T14:59:15;95162.56;;;6.77;100.00
40650;BME280;26342;42.826;23.992;2023-03-03T15:01:42;95161.69;;;6.71;100.00
40650;BME280;26342;42.826;23.992;2023-03-03T15:06:49;95164.50;;;6.82;100.00
40650;BME280;26342;42.826;23.992;2023-03-03T15:11:59;95170.09;;;6.68;100.00
40650;BME280;26342;42.826;23.992;2023-03-03T15:14:30;95161.16;;;6.58;100.00
40650;BME280;26342;42.826;23.992;2023-03-03T15:17:56;95160.53;;;6.67;100.00
40650;BME280;26342;42.826;23.992;2023-03-03T15:20:23;95167.78;;;6.72;100.00
40650;BME280;26342;42.826;23.992;2023-03-03T15:34:50;95170.34;;;6.55;100.00
40650;BME280;26342;42.826;23.992;2023-03-03T15:48:23;95171.75;;;6.06;100.00
40650;BME280;26342;42.826;23.992;2023-03-03T15:56:46;95176.72;;;6.02;100.00
40650;BME280;26342;42.826;23.992;2023-03-03T16:02:09;95186.88;;;5.94;100.00
40650;BME280;26342;42.826;23.992;2023-03-03T16:07:34;95191.34;;;5.81;100.00
40650;BME280;26342;42.826;23.992;2023-03-03T16:10:03;95196.41;;;5.83;100.00
40650;BME280;26342;42.826;23.992;2023-03-03T16:26:42;95213.22;;;5.65;100.00
40650;BME280;26342;42.826;23.992;2023-03-03T16:31:55;95223.91;;;5.70;100.00
40650;BME280;26342;42.826;23.992;2023-03-03T16:39:51;95232.97;;;5.51;100.00
40650;BME280;26342;42.826;23.992;2023-03-03T16:42:21;95234.97;;;5.55;100.00
40650;BME280;26342;42.826;23.992;2023-03-03T16:55:44;95257.13;;;5.43;100.00
40650;BME280;26342;42.826;23.992;2023-03-03T17:03:37;95270.34;;;5.31;100.00
40650;BME280;26342;42.826;23.992;2023-03-03T17:06:17;95260.88;;;5.23;100.00
40650;BME280;26342;42.826;23.992;2023-03-03T17:14:17;95276.53;;;5.25;100.00
40650;BME280;26342;42.826;23.992;2023-03-03T17:16:52;95273.25;;;5.11;100.00
40650;BME280;26342;42.826;23.992;2023-03-03T17:19:52;95280.53;;;5.16;100.00
40650;BME280;26342;42.826;23.992;2023-03-03T17:22:50;95271.16;;;5.01;100.00
40650;BME280;26342;42.826;23.992;2023-03-03T17:25:21;95287.91;;;5.14;100.00
40650;BME280;26342;42.826;23.992;2023-03-03T17:28:15;95289.34;;;5.10;100.00
40650;BME280;26342;42.826;23.992;2023-03-03T17:36:15;95296.25;;;5.11;100.00
40650;BME280;26342;42.826;23.992;2023-03-03T17:46:34;95290.47;;;5.02;100.00
40650;BME280;26342;42.826;23.992;2023-03-03T18:00:38;95306.38;;;4.84;100.00
40650;BME280;26342;42.826;23.992;2023-03-03T18:11:46;95314.53;;;4.82;100.00
40650;BME280;26342;42.826;23.992;2023-03-03T18:14:20;95319.81;;;4.82;100.00
40650;BME280;26342;42.826;23.992;2023-03-03T18:35:30;95336.91;;;4.80;100.00
40650;BME280;26342;42.826;23.992;2023-03-03T18:41:04;95337.50;;;4.82;100.00
40650;BME280;26342;42.826;23.992;2023-03-03T18:48:57;95357.53;;;4.89;100.00
40650;BME280;26342;42.826;23.992;2023-03-03T18:54:25;95355.44;;;4.80;100.00
40650;BME280;26342;42.826;23.992;2023-03-03T19:04:42;95359.91;;;4.79;100.00
40650;BME280;26342;42.826;23.992;2023-03-03T19:12:42;95362.09;;;5.00;100.00
40650;BME280;26342;42.826;23.992;2023-03-03T19:21:05;95370.19;;;5.06;100.00
40650;BME280;26342;42.826;23.992;2023-03-03T19:23:53;95377.09;;;5.07;100.00